Time;durP1;ratioP1;P1;durP2;ratioP2;P2;SDS_P1;SDS_P2;PMS_P1;PMS_P2;Temp;Humidity;BMP_temperature;BMP_pressure;BME280_temperature;BME280_humidity;BME280_pressure;Samples;Min_cycle;Max_cycle;Signal;HPM_P1;HPM_P2
2021/12/29 00:01:35;;;;;;;18.20;10.90;;;1.70;99.90;;;;;;2604263;46;20084;31
2021/12/29 00:04:10;;;;;;;19.55;11.25;;;1.70;99.90;;;;;;2585901;54;20065;31
2021/12/29 00:06:46;;;;;;;20.15;11.13;;;1.70;99.90;;;;;;2586002;54;20937;31
2021/12/29 00:09:28;;;;;;;19.97;10.83;;;1.70;99.90;;;;;;2604350;46;20027;31
2021/12/29 00:12:03;;;;;;;20.23;11.13;;;1.70;99.90;;;;;;2585205;54;20034;31
2021/12/29 00:14:40;;;;;;;19.45;9.60;;;1.80;99.90;;;;;;2585788;54;20026;31
2021/12/29 00:17:13;;;;;;;18.20;9.60;;;1.70;99.90;;;;;;2586109;54;20855;31
2021/12/29 00:19:47;;;;;;;20.30;10.57;;;1.70;99.90;;;;;;2585975;54;21082;31
2021/12/29 00:22:20;;;;;;;14.60;8.90;;;1.70;99.90;;;;;;2585902;54;20023;31
2021/12/29 00:24:56;;;;;;;16.85;8.90;;;1.70;99.90;;;;;;2601159;46;20035;31
2021/12/29 00:27:33;;;;;;;17.20;7.70;;;1.80;99.90;;;;;;2585867;54;20085;31
2021/12/29 00:30:12;;;;;;;12.63;7.40;;;1.70;99.90;;;;;;2586006;54;20054;31
2021/12/29 00:33:05;;;;;;;15.05;8.25;;;1.70;99.90;;;;;;2604797;46;20045;31
2021/12/29 00:36:13;;;;;;;14.32;7.78;;;1.70;99.90;;;;;;2585771;54;20876;31
2021/12/29 00:39:05;;;;;;;14.75;8.10;;;1.70;99.90;;;;;;2585953;54;20930;31
2021/12/29 00:41:58;;;;;;;13.30;7.80;;;1.70;99.90;;;;;;2586125;54;20076;31
2021/12/29 00:45:14;;;;;;;11.88;7.28;;;1.70;99.90;;;;;;2585480;54;20822;31
2021/12/29 00:47:48;;;;;;;12.05;7.55;;;1.70;99.90;;;;;;2604607;46;20097;31
2021/12/29 00:50:21;;;;;;;12.20;8.35;;;1.70;99.90;;;;;;2604119;46;20038;31
2021/12/29 00:52:54;;;;;;;16.13;9.77;;;1.80;99.90;;;;;;2586013;54;20912;31
2021/12/29 00:55:28;;;;;;;18.27;10.18;;;1.70;99.90;;;;;;2586044;54;20089;31
2021/12/29 00:58:08;;;;;;;15.55;8.60;;;1.80;99.90;;;;;;2585676;54;20022;31
2021/12/29 01:00:42;;;;;;;16.57;9.93;;;1.80;99.90;;;;;;2585833;54;20045;31
2021/12/29 01:03:16;;;;;;;21.47;11.73;;;1.80;99.90;;;;;;2586133;54;20944;31
2021/12/29 01:05:47;;;;;;;22.20;13.65;;;1.80;99.90;;;;;;2586061;54;20746;31
2021/12/29 01:08:19;;;;;;;21.90;13.45;;;1.80;99.90;;;;;;2585595;54;20057;31
2021/12/29 01:10:54;;;;;;;25.98;14.48;;;1.80;99.90;;;;;;2604661;47;20036;31
2021/12/29 01:13:34;;;;;;;25.05;14.20;;;1.70;99.90;;;;;;2586005;54;20034;31
2021/12/29 01:16:36;;;;;;;23.27;13.77;;;1.80;99.90;;;;;;2586470;54;20139;31
2021/12/29 01:19:10;;;;;;;29.70;15.25;;;1.70;99.90;;;;;;2586642;54;20030;31
2021/12/29 01:21:44;;;;;;;26.40;14.50;;;1.80;99.90;;;;;;2586631;54;20038;31
2021/12/29 01:24:16;;;;;;;25.90;14.40;;;1.70;99.90;;;;;;2586666;54;20029;31
2021/12/29 01:26:49;;;;;;;26.55;15.30;;;1.70;99.90;;;;;;2586700;54;20074;31
2021/12/29 01:29:28;;;;;;;25.52;14.93;;;1.70;99.90;;;;;;2586804;54;20033;31
2021/12/29 01:32:00;;;;;;;24.92;15.55;;;1.70;99.90;;;;;;2586870;54;20026;31
2021/12/29 01:34:35;;;;;;;25.13;15.45;;;1.70;99.90;;;;;;2605083;46;20965;31
2021/12/29 01:37:09;;;;;;;28.52;16.02;;;1.70;99.90;;;;;;2586688;54;20873;31
2021/12/29 01:39:44;;;;;;;30.90;17.67;;;1.70;99.90;;;;;;2586355;54;20920;31
2021/12/29 01:42:19;;;;;;;27.10;16.10;;;1.70;99.90;;;;;;2586536;54;20037;31
2021/12/29 01:44:56;;;;;;;26.30;15.55;;;1.70;99.90;;;;;;2586748;54;20026;31
2021/12/29 01:47:28;;;;;;;33.07;16.20;;;1.70;99.90;;;;;;2586590;54;20057;31
2021/12/29 01:50:07;;;;;;;30.07;16.27;;;1.70;99.90;;;;;;2586065;54;21146;31
2021/12/29 01:52:40;;;;;;;26.55;15.60;;;1.60;99.90;;;;;;2586778;54;20780;31
2021/12/29 01:55:15;;;;;;;28.40;16.53;;;1.60;99.90;;;;;;2603189;46;20919;31
2021/12/29 01:57:52;;;;;;;28.83;16.80;;;1.70;99.90;;;;;;2586555;54;20881;31
2021/12/29 02:00:32;;;;;;;28.80;16.50;;;1.70;99.90;;;;;;2586353;54;20027;31
2021/12/29 02:03:07;;;;;;;30.55;16.77;;;1.70;99.90;;;;;;2586621;54;20917;31
2021/12/29 02:05:44;;;;;;;32.65;16.25;;;1.70;99.90;;;;;;2585764;54;20912;31
2021/12/29 02:08:22;;;;;;;35.55;18.50;;;1.70;99.90;;;;;;2585649;54;20041;31
2021/12/29 02:11:00;;;;;;;33.33;16.85;;;1.70;99.90;;;;;;2586626;54;20085;31
2021/12/29 02:13:35;;;;;;;29.15;15.63;;;1.70;99.90;;;;;;2604900;46;20133;31
2021/12/29 02:16:14;;;;;;;23.15;14.15;;;1.70;99.90;;;;;;2586474;54;20942;31
2021/12/29 02:18:54;;;;;;;25.65;15.68;;;1.70;99.90;;;;;;2586393;54;20880;31
2021/12/29 02:21:32;;;;;;;27.38;15.40;;;1.70;99.90;;;;;;2586243;54;20877;31
2021/12/29 02:24:23;;;;;;;23.90;14.85;;;1.80;99.90;;;;;;2604708;46;20036;31
2021/12/29 02:26:58;;;;;;;22.37;13.50;;;1.70;99.90;;;;;;2604885;46;20030;31
2021/12/29 02:29:33;;;;;;;24.60;14.35;;;1.80;99.90;;;;;;2586125;54;20253;31
2021/12/29 02:32:09;;;;;;;28.40;14.65;;;1.80;99.90;;;;;;2586391;54;20081;31
2021/12/29 02:34:42;;;;;;;22.87;12.67;;;1.80;99.90;;;;;;2586310;54;20906;31
2021/12/29 02:37:24;;;;;;;22.80;11.77;;;1.80;99.90;;;;;;2604551;46;20034;31
2021/12/29 02:39:57;;;;;;;22.98;12.88;;;1.80;99.90;;;;;;2604444;46;19964;31
2021/12/29 02:42:39;;;;;;;21.83;12.87;;;1.80;99.90;;;;;;2586439;54;20026;31
2021/12/29 02:45:14;;;;;;;27.90;13.00;;;1.80;99.90;;;;;;2586326;54;20030;31
2021/12/29 02:47:47;;;;;;;22.00;11.70;;;1.80;99.90;;;;;;2586365;54;20258;31
2021/12/29 02:50:26;;;;;;;19.50;11.60;;;1.80;99.90;;;;;;2586494;54;20970;31
2021/12/29 02:53:00;;;;;;;18.00;9.95;;;1.70;99.90;;;;;;2585988;54;20030;31
2021/12/29 02:55:34;;;;;;;18.70;10.75;;;1.80;99.90;;;;;;2601426;46;20073;31
2021/12/29 02:58:08;;;;;;;15.75;10.10;;;1.70;99.90;;;;;;2586334;54;20026;31
2021/12/29 03:00:42;;;;;;;20.83;10.45;;;1.70;99.90;;;;;;2586199;54;20076;31
2021/12/29 03:03:19;;;;;;;16.05;10.75;;;1.70;99.90;;;;;;2586379;54;20756;31
2021/12/29 03:05:52;;;;;;;20.60;10.55;;;1.70;99.90;;;;;;2586212;54;20123;31
2021/12/29 03:08:29;;;;;;;18.30;9.48;;;1.70;99.90;;;;;;2586558;54;20876;31
2021/12/29 03:11:05;;;;;;;15.07;9.23;;;1.70;99.90;;;;;;2586416;54;20882;31
2021/12/29 03:13:41;;;;;;;17.93;9.37;;;1.70;99.90;;;;;;2586539;54;20885;31
2021/12/29 03:16:18;;;;;;;16.30;9.35;;;1.70;99.90;;;;;;2592325;46;20336;31
2021/12/29 03:18:50;;;;;;;;;;;1.70;99.90;;;;;;2585748;54;20257;31
2021/12/29 03:23:41;;;;;;;12.18;8.18;;;1.70;99.90;;;;;;2646056;53;20662;31
2021/12/29 03:26:15;;;;;;;15.07;8.23;;;1.70;99.90;;;;;;2607381;54;20033;31
2021/12/29 03:28:51;;;;;;;14.40;7.95;;;1.70;99.90;;;;;;2607283;54;20037;31
2021/12/29 03:31:31;;;;;;;11.45;7.10;;;1.70;99.90;;;;;;2607469;54;20033;31
2021/12/29 03:34:07;;;;;;;12.55;7.35;;;1.70;99.90;;;;;;2607279;54;20033;31
2021/12/29 03:36:44;;;;;;;10.50;7.10;;;1.70;99.90;;;;;;2607499;54;20026;31
2021/12/29 03:39:23;;;;;;;9.65;5.80;;;1.70;99.90;;;;;;2607504;54;20030;31
2021/12/29 03:42:01;;;;;;;12.20;7.10;;;1.70;99.90;;;;;;2607337;54;20038;31
2021/12/29 03:44:35;;;;;;;13.75;8.40;;;1.70;99.90;;;;;;2607555;54;20030;31
2021/12/29 03:47:10;;;;;;;14.10;7.85;;;1.70;99.90;;;;;;2607644;54;20027;31
2021/12/29 03:49:45;;;;;;;11.95;8.10;;;1.70;99.90;;;;;;2607506;54;20046;31
2021/12/29 03:52:20;;;;;;;13.80;8.77;;;1.60;99.90;;;;;;2606731;54;20030;31
2021/12/29 03:54:58;;;;;;;16.98;10.05;;;1.70;99.90;;;;;;2607310;54;19996;31
2021/12/29 03:57:36;;;;;;;14.00;9.35;;;1.70;99.90;;;;;;2607703;54;20030;31
2021/12/29 04:00:11;;;;;;;14.10;8.75;;;1.60;99.90;;;;;;2607267;54;20036;31
2021/12/29 04:02:46;;;;;;;18.17;10.65;;;1.70;99.90;;;;;;2606492;54;20867;31
2021/12/29 04:05:23;;;;;;;17.85;11.80;;;1.70;99.90;;;;;;2606817;54;20026;31
2021/12/29 04:07:57;;;;;;;20.83;11.97;;;1.70;99.90;;;;;;2607217;54;20056;31
2021/12/29 04:10:38;;;;;;;;;;;1.60;99.90;;;;;;2625921;46;20238;31
2021/12/29 04:13:15;;;;;;;22.55;11.40;;;1.60;99.90;;;;;;2607379;54;19935;31
2021/12/29 04:15:50;;;;;;;20.70;13.05;;;1.60;99.90;;;;;;2607348;54;20065;31
2021/12/29 04:21:13;;;;;;;18.25;11.32;;;1.60;99.90;;;;;;2607008;54;20799;31
2021/12/29 04:23:50;;;;;;;18.75;11.55;;;1.60;99.90;;;;;;2607151;54;20037;31
2021/12/29 04:26:28;;;;;;;18.42;11.05;;;1.60;99.90;;;;;;2607206;54;20038;31
2021/12/29 04:29:03;;;;;;;17.98;10.75;;;1.60;99.90;;;;;;2607221;54;20859;31
2021/12/29 04:31:39;;;;;;;14.77;9.85;;;1.60;99.90;;;;;;2625520;46;20070;31
2021/12/29 04:34:17;;;;;;;19.80;12.13;;;1.60;99.90;;;;;;2616950;46;20027;31
2021/12/29 04:36:52;;;;;;;17.00;11.90;;;1.60;99.90;;;;;;2621633;46;20867;31
2021/12/29 04:39:26;;;;;;;19.25;12.15;;;1.60;99.90;;;;;;2603629;54;20091;31
2021/12/29 04:42:09;;;;;;;16.85;11.82;;;1.70;99.90;;;;;;2603720;54;21064;31
2021/12/29 04:44:46;;;;;;;22.02;12.30;;;1.50;99.90;;;;;;2603773;54;20030;31
2021/12/29 04:47:27;;;;;;;23.42;13.30;;;1.50;99.90;;;;;;2603722;54;20049;31
2021/12/29 04:50:03;;;;;;;21.27;13.25;;;1.60;99.90;;;;;;2603669;54;20033;31
2021/12/29 04:52:38;;;;;;;31.45;14.52;;;1.50;99.90;;;;;;2603645;54;20093;31
2021/12/29 04:55:13;;;;;;;22.50;14.00;;;1.50;99.90;;;;;;2603582;54;19947;31
2021/12/29 04:57:50;;;;;;;25.30;14.50;;;1.50;99.90;;;;;;2622134;46;20038;31
2021/12/29 05:00:28;;;;;;;24.63;15.05;;;1.50;99.90;;;;;;2603632;54;20076;31
2021/12/29 05:03:04;;;;;;;21.90;13.73;;;1.50;99.90;;;;;;2603707;54;20038;31
2021/12/29 05:05:53;;;;;;;27.83;15.15;;;1.50;99.90;;;;;;2621837;46;20035;31
2021/12/29 05:08:26;;;;;;;26.50;15.80;;;1.50;99.90;;;;;;2603710;54;20873;31
2021/12/29 05:11:02;;;;;;;27.13;16.07;;;1.50;99.90;;;;;;2621238;46;20022;31
2021/12/29 05:13:40;;;;;;;31.15;15.88;;;1.50;99.90;;;;;;2603573;54;20056;31
2021/12/29 05:16:15;;;;;;;27.70;16.63;;;1.60;99.90;;;;;;2603510;54;20057;31
2021/12/29 05:18:51;;;;;;;33.15;18.33;;;1.50;99.90;;;;;;2603559;54;20089;31
2021/12/29 05:21:26;;;;;;;24.15;16.15;;;1.50;99.90;;;;;;2603303;54;20030;31
2021/12/29 05:24:01;;;;;;;28.40;17.27;;;1.50;99.90;;;;;;2603551;54;20046;31
2021/12/29 05:26:38;;;;;;;32.37;19.27;;;1.50;99.90;;;;;;2603652;54;20026;31
2021/12/29 05:29:16;;;;;;;36.80;21.58;;;1.50;99.90;;;;;;2603475;54;20246;31
2021/12/29 05:31:53;;;;;;;36.47;23.13;;;1.50;99.90;;;;;;2603235;54;20119;31
2021/12/29 05:34:32;;;;;;;33.92;22.73;;;1.50;99.90;;;;;;2603385;54;20030;31
2021/12/29 05:37:05;;;;;;;32.75;20.45;;;1.50;99.90;;;;;;2622110;46;20031;31
2021/12/29 05:39:49;;;;;;;35.27;21.40;;;1.50;99.90;;;;;;2603528;54;20899;31
2021/12/29 05:42:25;;;;;;;38.97;20.42;;;1.50;99.90;;;;;;2603514;54;19941;31
2021/12/29 05:45:04;;;;;;;38.45;20.83;;;1.50;99.90;;;;;;2603001;54;20031;31
2021/12/29 05:47:43;;;;;;;39.67;20.70;;;1.50;99.90;;;;;;2603692;54;20030;31
2021/12/29 05:50:27;;;;;;;34.87;21.70;;;1.50;99.90;;;;;;2603487;54;20914;31
2021/12/29 05:55:51;;;;;;;37.80;21.00;;;1.50;99.90;;;;;;2603330;54;20247;31
2021/12/29 05:58:27;;;;;;;36.97;21.63;;;1.50;99.90;;;;;;2603554;54;20089;31
2021/12/29 06:01:05;;;;;;;32.15;19.60;;;1.50;99.90;;;;;;2603349;54;20963;31
2021/12/29 06:03:39;;;;;;;33.78;18.63;;;1.50;99.90;;;;;;2603293;54;20616;31
2021/12/29 06:06:16;;;;;;;34.40;19.47;;;1.50;99.90;;;;;;2622145;46;20898;31
2021/12/29 06:08:51;;;;;;;40.75;23.80;;;1.50;99.90;;;;;;2603414;54;20842;31
2021/12/29 06:11:27;;;;;;;43.70;26.50;;;1.50;99.90;;;;;;2622162;46;20081;31
2021/12/29 06:14:11;;;;;;;36.28;22.45;;;1.50;99.90;;;;;;2603288;54;20819;31
2021/12/29 06:16:49;;;;;;;33.30;20.98;;;1.50;99.90;;;;;;2603337;54;20026;31
2021/12/29 06:19:26;;;;;;;37.15;22.30;;;1.50;99.90;;;;;;2603046;54;20964;31
2021/12/29 06:21:59;;;;;;;39.65;23.52;;;1.50;99.90;;;;;;2603226;54;20116;31
2021/12/29 06:24:35;;;;;;;49.03;30.13;;;1.50;99.90;;;;;;2621365;46;20871;31
2021/12/29 06:27:12;;;;;;;42.53;26.17;;;1.50;99.90;;;;;;2603378;54;20048;31
2021/12/29 06:29:51;;;;;;;43.35;26.08;;;1.50;99.90;;;;;;2603273;54;20754;31
2021/12/29 06:32:34;;;;;;;38.57;24.10;;;1.50;99.90;;;;;;2621432;46;20048;31
2021/12/29 06:35:11;;;;;;;64.20;41.30;;;1.60;99.90;;;;;;2603455;54;20246;31
2021/12/29 06:37:45;;;;;;;59.67;40.67;;;1.60;99.90;;;;;;2603256;54;20037;31
2021/12/29 06:40:22;;;;;;;54.50;35.70;;;1.60;99.90;;;;;;2603293;54;20022;31
2021/12/29 06:42:56;;;;;;;38.97;26.67;;;1.60;99.90;;;;;;2603204;54;20027;31
2021/12/29 06:45:32;;;;;;;40.75;24.50;;;1.60;99.90;;;;;;2603278;54;20036;31
2021/12/29 06:48:12;;;;;;;42.65;24.67;;;1.60;99.90;;;;;;2603407;54;20859;31
2021/12/29 06:50:46;;;;;;;41.33;26.75;;;1.60;99.90;;;;;;2603315;54;20867;31
2021/12/29 06:53:21;;;;;;;39.60;25.33;;;1.60;99.90;;;;;;2603348;54;20784;31
2021/12/29 06:55:56;;;;;;;39.80;24.92;;;1.60;99.90;;;;;;2603148;54;21121;31
2021/12/29 06:58:34;;;;;;;40.45;25.33;;;1.60;99.90;;;;;;2603137;54;20030;31
2021/12/29 07:01:08;;;;;;;36.88;22.80;;;1.60;99.90;;;;;;2621817;46;20026;31
2021/12/29 07:03:48;;;;;;;38.15;22.83;;;1.70;99.90;;;;;;2603236;54;20093;31
2021/12/29 07:06:24;;;;;;;39.00;24.98;;;1.60;99.90;;;;;;2603214;54;20164;31
2021/12/29 07:08:59;;;;;;;45.97;25.35;;;1.60;99.90;;;;;;2603387;54;20037;31
2021/12/29 07:11:36;;;;;;;41.85;23.38;;;1.60;99.90;;;;;;2602524;54;20870;31
2021/12/29 07:14:10;;;;;;;44.30;29.40;;;1.60;99.90;;;;;;2602477;54;21041;31
2021/12/29 07:16:47;;;;;;;41.22;27.80;;;1.60;99.90;;;;;;2603159;54;20832;31
2021/12/29 07:19:26;;;;;;;40.03;24.40;;;1.60;99.90;;;;;;2622093;46;20904;31
2021/12/29 07:22:03;;;;;;;56.45;35.95;;;1.60;99.90;;;;;;2603476;54;20030;31
2021/12/29 07:24:39;;;;;;;60.47;35.30;;;1.70;99.90;;;;;;2603176;54;20072;31
2021/12/29 07:27:16;;;;;;;50.95;31.45;;;1.70;99.90;;;;;;2603018;54;20659;31
2021/12/29 07:29:50;;;;;;;47.42;31.35;;;1.70;99.90;;;;;;2621375;47;20023;31
2021/12/29 07:32:26;;;;;;;48.28;25.92;;;1.70;99.90;;;;;;2621229;47;20157;31
2021/12/29 07:35:04;;;;;;;35.25;23.40;;;1.70;99.90;;;;;;2603004;54;20026;31
2021/12/29 07:37:39;;;;;;;34.22;21.75;;;1.70;99.90;;;;;;2603191;54;20030;31
2021/12/29 07:40:17;;;;;;;43.65;25.52;;;1.70;99.90;;;;;;2603151;54;20023;31
2021/12/29 07:42:52;;;;;;;37.72;24.38;;;1.70;99.90;;;;;;2602959;54;20809;31
2021/12/29 07:45:28;;;;;;;40.00;24.20;;;1.70;99.90;;;;;;2603032;54;20048;31
2021/12/29 07:48:05;;;;;;;41.83;23.38;;;1.70;99.90;;;;;;2602896;54;20033;31
2021/12/29 07:50:47;;;;;;;43.60;25.80;;;1.80;99.90;;;;;;2603111;54;20852;31
2021/12/29 07:53:22;;;;;;;46.45;26.15;;;1.70;99.90;;;;;;2602957;54;20049;31
2021/12/29 07:55:59;;;;;;;46.60;26.90;;;1.70;99.90;;;;;;2603146;54;20055;31
2021/12/29 08:01:09;;;;;;;47.90;32.53;;;1.70;99.90;;;;;;2620715;47;20877;31
2021/12/29 08:03:44;;;;;;;;;;;1.70;99.90;;;;;;2602381;54;20254;31
2021/12/29 08:06:22;;;;;;;66.50;42.55;;;1.70;99.90;;;;;;2602860;54;20751;31
2021/12/29 08:08:57;;;;;;;100.47;62.38;;;1.90;99.90;;;;;;2603122;54;20030;31
2021/12/29 08:11:34;;;;;;;99.68;59.75;;;1.70;99.90;;;;;;2603725;54;20050;31
2021/12/29 08:14:10;;;;;;;76.95;47.20;;;1.70;99.90;;;;;;2773678;31;20635;31
2021/12/29 08:16:44;;;;;;;57.35;36.55;;;1.80;99.90;;;;;;2603632;54;20103;31
2021/12/29 08:19:22;;;;;;;59.23;32.77;;;1.80;99.90;;;;;;2702559;39;21130;31
2021/12/29 08:21:57;;;;;;;76.50;50.85;;;1.80;99.90;;;;;;2603660;54;20896;31
2021/12/29 08:24:35;;;;;;;82.70;54.40;;;1.90;99.90;;;;;;2621921;46;20038;31
2021/12/29 08:27:09;;;;;;;92.15;59.00;;;1.90;99.90;;;;;;2603623;54;20027;31
2021/12/29 08:29:50;;;;;;;93.10;63.80;;;1.90;99.90;;;;;;2603771;54;20148;31
2021/12/29 08:32:23;;;;;;;81.90;57.33;;;1.90;99.90;;;;;;2622083;46;20922;31
2021/12/29 08:35:00;;;;;;;95.18;62.35;;;2.00;99.90;;;;;;2603883;54;20045;31
2021/12/29 08:37:35;;;;;;;101.87;63.93;;;2.00;99.90;;;;;;2603794;54;20839;31
2021/12/29 08:40:20;;;;;;;107.13;66.93;;;2.00;99.90;;;;;;2602912;54;20055;31
2021/12/29 08:43:01;;;;;;;145.48;95.32;;;2.00;99.90;;;;;;2603843;54;20027;31
2021/12/29 08:45:37;;;;;;;156.60;100.30;;;2.10;99.90;;;;;;2603474;54;20026;31
2021/12/29 08:48:13;;;;;;;113.00;77.32;;;2.10;99.90;;;;;;2603445;54;20113;31
2021/12/29 08:50:48;;;;;;;121.10;77.47;;;2.20;99.90;;;;;;2603791;54;20831;31
2021/12/29 08:53:24;;;;;;;132.32;85.13;;;2.20;99.90;;;;;;2621901;46;20048;31
2021/12/29 08:56:01;;;;;;;90.00;60.35;;;2.30;99.90;;;;;;2603519;54;20802;31
2021/12/29 08:58:36;;;;;;;71.97;40.57;;;2.40;99.90;;;;;;2603413;54;20116;31
2021/12/29 09:01:12;;;;;;;;;;;2.40;99.90;;;;;;2602880;54;20896;31
2021/12/29 09:03:48;;;;;;;58.03;35.17;;;2.40;99.90;;;;;;2602817;54;20840;31
2021/12/29 09:06:53;;;;;;;46.78;31.15;;;2.40;99.90;;;;;;2621769;46;20165;31
2021/12/29 09:09:28;;;;;;;64.93;37.95;;;2.50;99.90;;;;;;2603346;54;20033;31
2021/12/29 09:12:08;;;;;;;51.95;32.60;;;2.50;99.90;;;;;;2603354;54;20805;31
2021/12/29 09:14:44;;;;;;;43.70;27.55;;;2.50;99.90;;;;;;2603471;54;20030;31
2021/12/29 09:17:19;;;;;;;46.10;30.63;;;2.50;99.90;;;;;;2603381;54;20959;31
2021/12/29 09:19:53;;;;;;;46.38;30.23;;;2.50;99.90;;;;;;2603356;54;20027;31
2021/12/29 09:22:29;;;;;;;51.72;33.20;;;2.50;99.90;;;;;;2603462;54;20871;31
2021/12/29 09:25:08;;;;;;;56.53;31.60;;;2.50;99.90;;;;;;2603542;54;20855;31
2021/12/29 09:27:49;;;;;;;58.55;34.90;;;2.60;99.90;;;;;;2603423;54;20862;31
2021/12/29 09:30:26;;;;;;;51.08;32.80;;;2.60;99.90;;;;;;2603390;54;20030;31
2021/12/29 09:33:01;;;;;;;;;;;2.60;99.90;;;;;;2603629;54;20740;31
2021/12/29 09:35:35;;;;;;;58.10;34.05;;;2.60;99.90;;;;;;2622015;46;19934;31
2021/12/29 09:38:13;;;;;;;60.38;37.33;;;2.70;99.90;;;;;;2603464;54;20832;31
2021/12/29 09:40:51;;;;;;;163.30;80.80;;;2.80;99.90;;;;;;2710077;39;21559;31
2021/12/29 09:43:31;;;;;;;94.47;50.05;;;2.90;99.90;;;;;;2701849;39;21453;31
2021/12/29 09:46:07;;;;;;;73.45;41.38;;;2.90;99.90;;;;;;2603549;54;20039;31
2021/12/29 09:48:42;;;;;;;65.40;39.50;;;3.00;99.90;;;;;;2603506;54;20046;31
2021/12/29 09:51:18;;;;;;;57.92;35.15;;;3.00;99.90;;;;;;2603436;54;20100;31
2021/12/29 09:53:53;;;;;;;;;;;3.10;99.90;;;;;;2603313;54;20104;31
2021/12/29 09:56:28;;;;;;;55.33;34.60;;;3.10;99.90;;;;;;2602714;54;20008;31
2021/12/29 09:59:07;;;;;;;67.15;39.60;;;3.10;99.90;;;;;;2603329;54;20085;31
2021/12/29 10:01:45;;;;;;;74.00;41.22;;;3.10;99.90;;;;;;2603321;54;20828;31
2021/12/29 10:04:25;;;;;;;66.43;42.50;;;3.20;99.90;;;;;;2603099;54;20026;31
2021/12/29 10:07:00;;;;;;;75.97;46.70;;;3.20;99.90;;;;;;2603402;54;20971;31
2021/12/29 10:09:37;;;;;;;66.68;44.92;;;3.20;99.90;;;;;;2603269;54;21011;31
2021/12/29 10:12:18;;;;;;;80.65;49.17;;;3.30;99.90;;;;;;2621713;46;20034;31
2021/12/29 10:15:02;;;;;;;78.90;46.03;;;3.40;99.90;;;;;;2622051;46;20876;31
2021/12/29 10:17:42;;;;;;;77.03;46.53;;;3.50;99.90;;;;;;2603242;54;20030;31
2021/12/29 10:20:19;;;;;;;70.35;43.47;;;3.60;99.90;;;;;;2603180;54;20026;31
2021/12/29 10:22:58;;;;;;;65.20;39.40;;;3.60;99.90;;;;;;2602355;54;20577;31
2021/12/29 10:25:41;;;;;;;62.00;38.40;;;3.70;99.90;;;;;;2603337;54;20861;31
2021/12/29 10:28:27;;;;;;;62.67;39.03;;;3.80;99.90;;;;;;2603086;54;20867;31
2021/12/29 10:31:07;;;;;;;75.03;46.80;;;3.80;99.90;;;;;;2621525;46;20819;31
2021/12/29 10:33:45;;;;;;;84.25;52.38;;;3.80;99.90;;;;;;2603293;54;20928;31
2021/12/29 10:36:24;;;;;;;107.20;65.70;;;3.90;99.90;;;;;;2622030;46;20030;31
2021/12/29 10:39:01;;;;;;;93.25;58.60;;;3.90;99.90;;;;;;2602323;54;20761;31
2021/12/29 10:41:47;;;;;;;81.28;55.65;;;4.00;99.90;;;;;;2602239;54;20027;31
2021/12/29 10:44:29;;;;;;;71.60;47.08;;;4.00;99.90;;;;;;2603096;54;20097;31
2021/12/29 10:47:16;;;;;;;72.45;44.75;;;4.00;99.90;;;;;;2602976;54;20053;31
2021/12/29 10:49:56;;;;;;;59.60;36.35;;;4.10;99.90;;;;;;2701688;39;20450;31
2021/12/29 10:52:36;;;;;;;62.47;39.67;;;4.00;99.90;;;;;;2621545;46;20030;31
2021/12/29 10:55:12;;;;;;;59.67;37.30;;;4.00;99.90;;;;;;2621516;46;20093;31
2021/12/29 10:57:47;;;;;;;;;;;4.10;99.90;;;;;;2603383;54;20958;31
2021/12/29 11:00:43;;;;;;;91.00;52.80;;;4.10;99.90;;;;;;2603271;54;19941;31
2021/12/29 11:03:27;;;;;;;93.43;54.42;;;4.10;99.90;;;;;;2616652;46;22515;31
2021/12/29 11:06:05;;;;;;;76.07;47.55;;;4.00;99.90;;;;;;2603185;54;20036;31
2021/12/29 11:08:49;;;;;;;76.95;48.40;;;4.10;99.90;;;;;;2603116;54;20037;31
2021/12/29 11:11:28;;;;;;;89.68;53.38;;;4.10;99.90;;;;;;2603007;54;20879;31
2021/12/29 11:14:03;;;;;;;74.82;45.97;;;4.10;99.90;;;;;;2603196;54;20963;31
2021/12/29 11:16:43;;;;;;;86.00;53.33;;;4.20;99.90;;;;;;2603170;54;20042;31
2021/12/29 11:19:37;;;;;;;80.28;46.30;;;4.20;99.90;;;;;;2602990;54;20104;31
2021/12/29 11:22:14;;;;;;;68.70;42.70;;;4.20;99.90;;;;;;2621257;46;20026;31
2021/12/29 11:24:56;;;;;;;65.72;40.40;;;4.20;99.90;;;;;;2603263;54;20841;31
2021/12/29 11:27:37;;;;;;;73.63;43.20;;;4.30;99.90;;;;;;2602931;54;20144;31
2021/12/29 11:30:25;;;;;;;66.17;39.83;;;4.30;99.90;;;;;;2602862;54;20089;31
2021/12/29 11:33:06;;;;;;;71.00;39.95;;;4.30;99.90;;;;;;2602908;54;20100;31
2021/12/29 11:35:47;;;;;;;64.40;38.75;;;4.20;99.90;;;;;;2603075;47;20655;31
2021/12/29 11:38:22;;;;;;;65.07;38.27;;;4.30;99.90;;;;;;2603324;54;20877;31
2021/12/29 11:41:01;;;;;;;56.35;36.33;;;4.30;99.90;;;;;;2603007;54;20250;31
2021/12/29 11:43:38;;;;;;;55.88;36.42;;;4.40;99.90;;;;;;2603261;54;20026;31
2021/12/29 11:46:21;;;;;;;51.78;33.33;;;4.50;99.90;;;;;;2603906;54;20841;31
2021/12/29 11:48:56;;;;;;;54.70;32.90;;;4.40;99.90;;;;;;2603905;54;20776;31
2021/12/29 11:51:40;;;;;;;54.23;35.37;;;4.50;99.90;;;;;;2618410;46;20030;31
2021/12/29 11:54:20;;;;;;;43.22;26.90;;;4.50;99.90;;;;;;2603776;54;20136;31
2021/12/29 11:56:55;;;;;;;53.80;35.53;;;4.60;99.90;;;;;;2602852;54;20073;31
2021/12/29 11:59:33;;;;;;;49.58;32.38;;;4.50;99.90;;;;;;2603858;54;20748;31
2021/12/29 12:02:08;;;;;;;50.10;32.47;;;4.50;99.90;;;;;;2603833;54;20030;31
2021/12/29 12:04:46;;;;;;;54.35;31.40;;;4.60;99.90;;;;;;2622163;46;20057;31
2021/12/29 12:07:29;;;;;;;44.15;28.65;;;4.60;99.90;;;;;;2603629;54;20880;31
2021/12/29 12:10:12;;;;;;;49.65;28.42;;;4.60;99.90;;;;;;2603845;54;20730;31
2021/12/29 12:12:53;;;;;;;40.00;27.40;;;4.70;99.90;;;;;;2603738;54;20026;31
2021/12/29 12:15:37;;;;;;;43.53;28.08;;;4.70;99.90;;;;;;2603702;54;20026;31
2021/12/29 12:18:12;;;;;;;44.40;27.95;;;4.80;99.90;;;;;;2603643;54;20026;31
2021/12/29 12:20:52;;;;;;;46.03;29.60;;;4.70;99.90;;;;;;2622372;46;20031;31
2021/12/29 12:26:12;;;;;;;47.95;28.77;;;4.80;99.90;;;;;;2621878;46;20882;31
2021/12/29 12:28:47;;;;;;;46.80;29.90;;;4.80;99.90;;;;;;2621813;46;20955;31
2021/12/29 12:31:29;;;;;;;55.50;33.70;;;4.80;99.90;;;;;;2603577;54;21141;31
2021/12/29 12:34:10;;;;;;;60.83;33.58;;;4.80;99.90;;;;;;2603519;54;21127;31
2021/12/29 12:36:46;;;;;;;56.80;32.67;;;4.90;99.90;;;;;;2603735;54;21001;31
2021/12/29 12:39:23;;;;;;;58.40;33.40;;;4.90;99.90;;;;;;2603768;54;20027;31
2021/12/29 12:42:03;;;;;;;54.72;33.10;;;4.90;99.90;;;;;;2603644;54;20877;31
2021/12/29 12:44:40;;;;;;;57.72;32.10;;;4.90;99.90;;;;;;2602743;54;20029;31
2021/12/29 12:47:17;;;;;;;49.95;32.15;;;4.90;99.90;;;;;;2602451;54;20089;31
2021/12/29 12:49:54;;;;;;;50.83;33.97;;;5.00;99.90;;;;;;2621875;46;20914;31
2021/12/29 12:52:30;;;;;;;51.78;32.88;;;5.00;99.90;;;;;;2603808;54;20042;31
2021/12/29 12:55:09;;;;;;;55.75;32.97;;;5.10;99.90;;;;;;2603714;54;20135;31
2021/12/29 12:57:44;;;;;;;39.30;25.85;;;5.10;99.90;;;;;;2603586;54;20026;31
2021/12/29 13:00:25;;;;;;;52.37;26.77;;;5.20;99.90;;;;;;2603748;54;20125;31
2021/12/29 13:03:00;;;;;;;39.75;25.15;;;5.20;99.90;;;;;;2621723;46;21060;31
2021/12/29 13:05:40;;;;;;;44.20;26.77;;;5.20;99.90;;;;;;2603416;54;20054;31
2021/12/29 13:08:18;;;;;;;45.05;27.15;;;5.20;99.90;;;;;;2603648;54;20033;31
2021/12/29 13:10:57;;;;;;;41.55;26.10;;;5.30;99.90;;;;;;2603488;54;20825;31
2021/12/29 13:13:32;;;;;;;47.88;26.95;;;5.20;99.90;;;;;;2622050;46;20041;31
2021/12/29 13:16:11;;;;;;;40.58;26.60;;;5.20;99.90;;;;;;2603526;54;20155;31
2021/12/29 13:18:52;;;;;;;41.30;25.00;;;5.20;99.90;;;;;;2603565;54;20026;31
2021/12/29 13:21:47;;;;;;;38.45;23.48;;;5.20;99.90;;;;;;2603271;54;20921;31
2021/12/29 13:24:21;;;;;;;38.83;27.02;;;5.20;99.90;;;;;;2603580;54;20089;31
2021/12/29 13:26:59;;;;;;;35.70;22.45;;;5.30;99.90;;;;;;2603597;54;20048;31
2021/12/29 13:29:35;;;;;;;37.00;25.38;;;5.20;99.90;;;;;;2603454;54;20104;31
2021/12/29 13:32:16;;;;;;;46.00;29.63;;;5.20;99.90;;;;;;2621780;46;21860;31
2021/12/29 13:35:02;;;;;;;48.58;27.77;;;5.20;99.90;;;;;;2603380;54;19985;31
2021/12/29 13:37:37;;;;;;;40.65;25.25;;;5.10;99.90;;;;;;2603428;54;20034;31
2021/12/29 13:40:15;;;;;;;46.03;26.42;;;5.20;99.90;;;;;;2621873;46;20286;31
2021/12/29 13:42:51;;;;;;;47.17;28.35;;;5.10;99.90;;;;;;2603351;54;20089;31
2021/12/29 13:45:26;;;;;;;46.90;29.45;;;5.10;99.90;;;;;;2603530;54;19941;31
2021/12/29 13:48:09;;;;;;;41.97;26.17;;;5.10;99.90;;;;;;2603367;54;20026;31
2021/12/29 13:50:58;;;;;;;40.05;25.50;;;5.10;99.90;;;;;;2603397;54;20109;31
2021/12/29 13:53:35;;;;;;;40.83;24.95;;;5.20;99.90;;;;;;2603520;54;20032;31
2021/12/29 13:56:11;;;;;;;38.78;24.17;;;5.20;99.90;;;;;;2621673;46;20869;31
2021/12/29 13:58:46;;;;;;;;;;;5.20;99.90;;;;;;2603525;54;19965;31